sensor_id;sensor_type;location;lat;lon;timestamp;P1;durP1;ratioP1;P2;durP2;ratioP2
4650;SDS011;2338;49.602;8.722;2023-08-24T00:02:24;9.20;;;4.33;;
4650;SDS011;2338;49.602;8.722;2023-08-24T00:05:10;4.90;;;4.33;;
4650;SDS011;2338;49.602;8.722;2023-08-24T00:07:58;5.57;;;4.53;;
4650;SDS011;2338;49.602;8.722;2023-08-24T00:10:44;5.17;;;4.67;;
4650;SDS011;2338;49.602;8.722;2023-08-24T00:13:30;8.67;;;5.00;;
4650;SDS011;2338;49.602;8.722;2023-08-24T00:16:16;7.53;;;5.17;;
4650;SDS011;2338;49.602;8.722;2023-08-24T00:19:03;5.93;;;5.00;;
4650;SDS011;2338;49.602;8.722;2023-08-24T00:21:48;8.47;;;4.63;;
4650;SDS011;2338;49.602;8.722;2023-08-24T00:24:36;11.80;;;4.80;;
4650;SDS011;2338;49.602;8.722;2023-08-24T00:27:21;9.60;;;4.37;;
4650;SDS011;2338;49.602;8.722;2023-08-24T00:30:07;7.20;;;4.93;;
4650;SDS011;2338;49.602;8.722;2023-08-24T00:32:53;15.13;;;5.13;;
4650;SDS011;2338;49.602;8.722;2023-08-24T00:35:39;8.60;;;5.10;;
4650;SDS011;2338;49.602;8.722;2023-08-24T00:38:24;8.20;;;5.10;;
4650;SDS011;2338;49.602;8.722;2023-08-24T00:41:12;9.60;;;6.07;;
4650;SDS011;2338;49.602;8.722;2023-08-24T00:43:57;8.83;;;5.27;;
4650;SDS011;2338;49.602;8.722;2023-08-24T00:46:43;9.43;;;5.20;;
4650;SDS011;2338;49.602;8.722;2023-08-24T00:49:29;8.40;;;5.47;;
4650;SDS011;2338;49.602;8.722;2023-08-24T00:52:14;6.30;;;5.30;;
4650;SDS011;2338;49.602;8.722;2023-08-24T00:55:01;5.17;;;4.40;;
4650;SDS011;2338;49.602;8.722;2023-08-24T00:57:49;9.43;;;5.50;;
4650;SDS011;2338;49.602;8.722;2023-08-24T01:00:36;9.93;;;5.23;;
4650;SDS011;2338;49.602;8.722;2023-08-24T01:03:22;6.93;;;5.43;;
4650;SDS011;2338;49.602;8.722;2023-08-24T01:06:08;16.10;;;5.40;;
4650;SDS011;2338;49.602;8.722;2023-08-24T01:08:54;6.37;;;5.03;;
4650;SDS011;2338;49.602;8.722;2023-08-24T01:11:43;5.90;;;5.30;;
4650;SDS011;2338;49.602;8.722;2023-08-24T01:14:43;9.00;;;4.67;;
4650;SDS011;2338;49.602;8.722;2023-08-24T01:17:35;5.93;;;4.50;;
4650;SDS011;2338;49.602;8.722;2023-08-24T01:20:24;6.63;;;5.70;;
4650;SDS011;2338;49.602;8.722;2023-08-24T01:23:14;10.03;;;5.00;;
4650;SDS011;2338;49.602;8.722;2023-08-24T01:26:18;8.53;;;5.70;;
4650;SDS011;2338;49.602;8.722;2023-08-24T01:29:05;6.87;;;5.63;;
4650;SDS011;2338;49.602;8.722;2023-08-24T01:31:52;7.80;;;5.73;;
4650;SDS011;2338;49.602;8.722;2023-08-24T01:34:38;10.00;;;4.90;;
4650;SDS011;2338;49.602;8.722;2023-08-24T01:37:23;8.03;;;5.40;;
4650;SDS011;2338;49.602;8.722;2023-08-24T01:40:10;8.63;;;5.00;;
4650;SDS011;2338;49.602;8.722;2023-08-24T01:43:04;10.33;;;5.47;;
4650;SDS011;2338;49.602;8.722;2023-08-24T01:45:52;10.07;;;5.53;;
4650;SDS011;2338;49.602;8.722;2023-08-24T01:48:39;11.20;;;5.97;;
4650;SDS011;2338;49.602;8.722;2023-08-24T01:51:25;6.97;;;5.60;;
4650;SDS011;2338;49.602;8.722;2023-08-24T01:54:12;9.07;;;6.27;;
4650;SDS011;2338;49.602;8.722;2023-08-24T01:56:58;7.33;;;6.00;;
4650;SDS011;2338;49.602;8.722;2023-08-24T01:59:45;5.30;;;4.80;;
4650;SDS011;2338;49.602;8.722;2023-08-24T02:02:30;5.23;;;4.70;;
4650;SDS011;2338;49.602;8.722;2023-08-24T02:05:17;7.93;;;5.17;;
4650;SDS011;2338;49.602;8.722;2023-08-24T02:08:02;6.47;;;5.10;;
4650;SDS011;2338;49.602;8.722;2023-08-24T02:10:49;6.47;;;4.73;;
4650;SDS011;2338;49.602;8.722;2023-08-24T02:13:35;8.87;;;5.33;;
4650;SDS011;2338;49.602;8.722;2023-08-24T02:16:22;6.90;;;4.80;;
4650;SDS011;2338;49.602;8.722;2023-08-24T02:19:08;7.60;;;5.20;;
4650;SDS011;2338;49.602;8.722;2023-08-24T02:21:54;10.00;;;5.40;;
4650;SDS011;2338;49.602;8.722;2023-08-24T02:24:39;7.57;;;4.93;;
4650;SDS011;2338;49.602;8.722;2023-08-24T02:27:25;7.50;;;5.40;;
4650;SDS011;2338;49.602;8.722;2023-08-24T02:30:11;7.00;;;4.90;;
4650;SDS011;2338;49.602;8.722;2023-08-24T02:32:59;5.90;;;4.90;;
4650;SDS011;2338;49.602;8.722;2023-08-24T02:35:46;7.37;;;4.77;;
4650;SDS011;2338;49.602;8.722;2023-08-24T02:38:32;8.67;;;4.63;;
4650;SDS011;2338;49.602;8.722;2023-08-24T02:41:18;6.50;;;4.60;;
4650;SDS011;2338;49.602;8.722;2023-08-24T02:44:03;9.93;;;5.17;;
4650;SDS011;2338;49.602;8.722;2023-08-24T02:46:49;9.90;;;5.00;;
4650;SDS011;2338;49.602;8.722;2023-08-24T02:49:36;8.90;;;5.30;;
4650;SDS011;2338;49.602;8.722;2023-08-24T02:52:22;7.43;;;5.83;;
4650;SDS011;2338;49.602;8.722;2023-08-24T02:55:08;7.60;;;5.17;;
4650;SDS011;2338;49.602;8.722;2023-08-24T02:57:54;13.37;;;5.83;;
4650;SDS011;2338;49.602;8.722;2023-08-24T03:00:40;9.67;;;6.27;;
4650;SDS011;2338;49.602;8.722;2023-08-24T03:03:26;5.83;;;5.23;;
4650;SDS011;2338;49.602;8.722;2023-08-24T03:06:13;6.17;;;4.73;;
4650;SDS011;2338;49.602;8.722;2023-08-24T03:08:59;6.73;;;5.37;;
4650;SDS011;2338;49.602;8.722;2023-08-24T03:11:47;5.50;;;4.70;;
4650;SDS011;2338;49.602;8.722;2023-08-24T03:14:33;5.77;;;5.17;;
4650;SDS011;2338;49.602;8.722;2023-08-24T03:17:19;7.30;;;5.57;;
4650;SDS011;2338;49.602;8.722;2023-08-24T03:20:06;17.93;;;5.80;;
4650;SDS011;2338;49.602;8.722;2023-08-24T03:22:55;7.13;;;5.53;;
4650;SDS011;2338;49.602;8.722;2023-08-24T03:25:41;5.80;;;5.20;;
4650;SDS011;2338;49.602;8.722;2023-08-24T03:28:27;5.40;;;4.90;;
4650;SDS011;2338;49.602;8.722;2023-08-24T03:31:13;9.27;;;5.63;;
4650;SDS011;2338;49.602;8.722;2023-08-24T03:33:58;8.40;;;4.93;;
4650;SDS011;2338;49.602;8.722;2023-08-24T03:36:44;10.30;;;5.60;;
4650;SDS011;2338;49.602;8.722;2023-08-24T03:39:32;8.00;;;5.03;;
4650;SDS011;2338;49.602;8.722;2023-08-24T03:42:18;7.67;;;5.23;;
4650;SDS011;2338;49.602;8.722;2023-08-24T03:45:04;8.13;;;5.67;;
4650;SDS011;2338;49.602;8.722;2023-08-24T03:47:50;7.03;;;5.50;;
4650;SDS011;2338;49.602;8.722;2023-08-24T03:50:36;7.00;;;6.27;;
4650;SDS011;2338;49.602;8.722;2023-08-24T03:53:21;7.83;;;5.40;;
4650;SDS011;2338;49.602;8.722;2023-08-24T03:56:08;8.80;;;6.60;;
4650;SDS011;2338;49.602;8.722;2023-08-24T03:58:54;6.63;;;5.67;;
4650;SDS011;2338;49.602;8.722;2023-08-24T04:01:39;10.73;;;7.20;;
4650;SDS011;2338;49.602;8.722;2023-08-24T04:04:25;7.23;;;6.53;;
4650;SDS011;2338;49.602;8.722;2023-08-24T04:07:11;8.00;;;5.83;;
4650;SDS011;2338;49.602;8.722;2023-08-24T04:09:56;6.70;;;6.10;;
4650;SDS011;2338;49.602;8.722;2023-08-24T04:12:43;7.07;;;6.37;;
4650;SDS011;2338;49.602;8.722;2023-08-24T04:15:29;9.13;;;6.00;;
4650;SDS011;2338;49.602;8.722;2023-08-24T04:18:15;7.53;;;6.83;;
4650;SDS011;2338;49.602;8.722;2023-08-24T04:21:00;8.83;;;6.77;;
4650;SDS011;2338;49.602;8.722;2023-08-24T04:23:46;13.33;;;6.87;;
4650;SDS011;2338;49.602;8.722;2023-08-24T04:26:32;9.00;;;6.00;;
4650;SDS011;2338;49.602;8.722;2023-08-24T04:29:19;11.73;;;6.40;;
4650;SDS011;2338;49.602;8.722;2023-08-24T04:32:05;8.17;;;7.10;;
4650;SDS011;2338;49.602;8.722;2023-08-24T04:34:51;10.07;;;7.80;;
4650;SDS011;2338;49.602;8.722;2023-08-24T04:37:37;7.80;;;6.40;;
4650;SDS011;2338;49.602;8.722;2023-08-24T04:40:23;8.10;;;6.27;;
4650;SDS011;2338;49.602;8.722;2023-08-24T04:43:08;9.10;;;6.90;;
4650;SDS011;2338;49.602;8.722;2023-08-24T04:45:56;9.63;;;6.90;;
4650;SDS011;2338;49.602;8.722;2023-08-24T04:48:41;6.73;;;6.03;;
4650;SDS011;2338;49.602;8.722;2023-08-24T04:51:27;6.83;;;6.13;;
4650;SDS011;2338;49.602;8.722;2023-08-24T04:54:13;8.80;;;6.80;;
4650;SDS011;2338;49.602;8.722;2023-08-24T04:56:58;11.10;;;7.37;;
4650;SDS011;2338;49.602;8.722;2023-08-24T04:59:44;6.70;;;6.10;;
4650;SDS011;2338;49.602;8.722;2023-08-24T05:02:31;8.10;;;6.33;;
4650;SDS011;2338;49.602;8.722;2023-08-24T05:05:16;10.30;;;6.50;;
4650;SDS011;2338;49.602;8.722;2023-08-24T05:08:03;9.03;;;6.27;;
4650;SDS011;2338;49.602;8.722;2023-08-24T05:10:53;8.83;;;6.90;;
4650;SDS011;2338;49.602;8.722;2023-08-24T05:13:39;6.63;;;5.93;;
4650;SDS011;2338;49.602;8.722;2023-08-24T05:16:24;7.40;;;5.93;;
4650;SDS011;2338;49.602;8.722;2023-08-24T05:19:12;7.03;;;6.33;;
4650;SDS011;2338;49.602;8.722;2023-08-24T05:21:58;7.40;;;6.30;;
4650;SDS011;2338;49.602;8.722;2023-08-24T05:24:43;8.37;;;6.90;;
4650;SDS011;2338;49.602;8.722;2023-08-24T05:27:29;9.40;;;7.00;;
4650;SDS011;2338;49.602;8.722;2023-08-24T05:30:15;8.20;;;7.40;;
4650;SDS011;2338;49.602;8.722;2023-08-24T05:33:01;6.90;;;6.20;;
4650;SDS011;2338;49.602;8.722;2023-08-24T05:35:48;6.83;;;6.23;;
4650;SDS011;2338;49.602;8.722;2023-08-24T05:38:34;8.77;;;6.80;;
4650;SDS011;2338;49.602;8.722;2023-08-24T05:41:20;7.40;;;6.47;;
4650;SDS011;2338;49.602;8.722;2023-08-24T05:44:05;9.23;;;7.40;;
4650;SDS011;2338;49.602;8.722;2023-08-24T05:46:51;9.73;;;7.67;;
4650;SDS011;2338;49.602;8.722;2023-08-24T05:49:36;8.03;;;7.17;;
4650;SDS011;2338;49.602;8.722;2023-08-24T05:52:24;7.43;;;6.63;;
4650;SDS011;2338;49.602;8.722;2023-08-24T05:55:10;6.70;;;5.90;;
4650;SDS011;2338;49.602;8.722;2023-08-24T05:57:56;7.37;;;6.60;;
4650;SDS011;2338;49.602;8.722;2023-08-24T06:00:42;16.37;;;6.67;;
4650;SDS011;2338;49.602;8.722;2023-08-24T06:03:27;8.00;;;6.33;;
4650;SDS011;2338;49.602;8.722;2023-08-24T06:06:13;7.37;;;6.67;;
4650;SDS011;2338;49.602;8.722;2023-08-24T06:09:00;7.70;;;6.90;;
4650;SDS011;2338;49.602;8.722;2023-08-24T06:11:47;7.90;;;6.87;;
4650;SDS011;2338;49.602;8.722;2023-08-24T06:14:33;7.37;;;6.67;;
4650;SDS011;2338;49.602;8.722;2023-08-24T06:17:18;13.03;;;7.20;;
4650;SDS011;2338;49.602;8.722;2023-08-24T06:20:05;11.80;;;6.90;;
4650;SDS011;2338;49.602;8.722;2023-08-24T06:22:53;8.23;;;7.53;;
4650;SDS011;2338;49.602;8.722;2023-08-24T06:25:41;7.67;;;6.93;;
4650;SDS011;2338;49.602;8.722;2023-08-24T06:28:26;7.10;;;6.40;;
4650;SDS011;2338;49.602;8.722;2023-08-24T06:31:12;7.63;;;6.60;;
4650;SDS011;2338;49.602;8.722;2023-08-24T06:33:58;12.67;;;7.30;;
4650;SDS011;2338;49.602;8.722;2023-08-24T06:36:43;7.47;;;5.80;;
4650;SDS011;2338;49.602;8.722;2023-08-24T06:39:29;6.77;;;6.07;;
4650;SDS011;2338;49.602;8.722;2023-08-24T06:42:17;10.10;;;6.83;;
4650;SDS011;2338;49.602;8.722;2023-08-24T06:45:03;9.93;;;6.20;;
4650;SDS011;2338;49.602;8.722;2023-08-24T06:47:50;6.90;;;6.30;;
4650;SDS011;2338;49.602;8.722;2023-08-24T06:50:36;10.47;;;6.27;;
4650;SDS011;2338;49.602;8.722;2023-08-24T06:53:21;7.90;;;6.93;;
4650;SDS011;2338;49.602;8.722;2023-08-24T06:56:07;7.17;;;6.47;;
4650;SDS011;2338;49.602;8.722;2023-08-24T06:58:54;8.83;;;6.70;;
4650;SDS011;2338;49.602;8.722;2023-08-24T07:01:40;8.00;;;6.83;;
4650;SDS011;2338;49.602;8.722;2023-08-24T07:04:25;10.73;;;6.67;;
4650;SDS011;2338;49.602;8.722;2023-08-24T07:07:11;9.90;;;6.93;;
4650;SDS011;2338;49.602;8.722;2023-08-24T07:09:57;6.70;;;5.87;;
4650;SDS011;2338;49.602;8.722;2023-08-24T07:12:43;8.53;;;6.10;;
4650;SDS011;2338;49.602;8.722;2023-08-24T07:15:30;8.83;;;5.67;;
4650;SDS011;2338;49.602;8.722;2023-08-24T07:18:18;7.20;;;6.23;;
4650;SDS011;2338;49.602;8.722;2023-08-24T07:21:03;6.00;;;5.40;;
4650;SDS011;2338;49.602;8.722;2023-08-24T07:23:49;9.27;;;6.10;;
4650;SDS011;2338;49.602;8.722;2023-08-24T07:26:34;6.70;;;6.10;;
4650;SDS011;2338;49.602;8.722;2023-08-24T07:29:20;10.23;;;5.80;;
4650;SDS011;2338;49.602;8.722;2023-08-24T07:32:07;10.17;;;7.57;;
4650;SDS011;2338;49.602;8.722;2023-08-24T07:34:53;8.13;;;5.00;;
4650;SDS011;2338;49.602;8.722;2023-08-24T07:37:38;9.70;;;5.10;;
4650;SDS011;2338;49.602;8.722;2023-08-24T07:40:24;10.50;;;4.03;;
4650;SDS011;2338;49.602;8.722;2023-08-24T07:43:10;10.33;;;5.37;;
4650;SDS011;2338;49.602;8.722;2023-08-24T07:45:56;9.30;;;4.13;;
4650;SDS011;2338;49.602;8.722;2023-08-24T07:48:44;4.90;;;4.13;;
4650;SDS011;2338;49.602;8.722;2023-08-24T07:51:29;5.57;;;3.47;;
4650;SDS011;2338;49.602;8.722;2023-08-24T07:54:15;4.93;;;4.20;;
4650;SDS011;2338;49.602;8.722;2023-08-24T07:57:00;5.73;;;3.90;;
4650;SDS011;2338;49.602;8.722;2023-08-24T07:59:46;5.40;;;3.63;;
4650;SDS011;2338;49.602;8.722;2023-08-24T08:02:32;6.43;;;3.77;;
4650;SDS011;2338;49.602;8.722;2023-08-24T08:05:19;6.33;;;3.83;;
4650;SDS011;2338;49.602;8.722;2023-08-24T08:08:06;4.90;;;3.60;;
4650;SDS011;2338;49.602;8.722;2023-08-24T08:10:57;9.03;;;4.10;;
4650;SDS011;2338;49.602;8.722;2023-08-24T08:13:44;4.57;;;3.87;;
4650;SDS011;2338;49.602;8.722;2023-08-24T08:16:30;8.00;;;4.00;;
4650;SDS011;2338;49.602;8.722;2023-08-24T08:19:16;7.47;;;3.87;;
4650;SDS011;2338;49.602;8.722;2023-08-24T08:22:04;4.60;;;3.50;;
4650;SDS011;2338;49.602;8.722;2023-08-24T08:24:50;7.77;;;4.60;;
4650;SDS011;2338;49.602;8.722;2023-08-24T08:27:38;7.53;;;3.60;;
4650;SDS011;2338;49.602;8.722;2023-08-24T08:30:23;5.57;;;3.77;;
4650;SDS011;2338;49.602;8.722;2023-08-24T08:33:09;6.60;;;4.40;;
4650;SDS011;2338;49.602;8.722;2023-08-24T08:35:55;6.17;;;4.10;;
4650;SDS011;2338;49.602;8.722;2023-08-24T08:38:42;5.33;;;3.90;;
4650;SDS011;2338;49.602;8.722;2023-08-24T08:41:30;7.00;;;4.10;;
4650;SDS011;2338;49.602;8.722;2023-08-24T08:44:21;5.90;;;3.90;;
4650;SDS011;2338;49.602;8.722;2023-08-24T08:47:09;15.03;;;4.27;;
4650;SDS011;2338;49.602;8.722;2023-08-24T08:49:55;7.40;;;4.53;;
4650;SDS011;2338;49.602;8.722;2023-08-24T08:52:41;7.60;;;4.10;;
4650;SDS011;2338;49.602;8.722;2023-08-24T08:55:28;8.57;;;4.20;;
4650;SDS011;2338;49.602;8.722;2023-08-24T08:58:15;6.30;;;4.80;;
4650;SDS011;2338;49.602;8.722;2023-08-24T09:01:02;12.23;;;4.63;;
4650;SDS011;2338;49.602;8.722;2023-08-24T09:03:49;19.70;;;5.83;;
4650;SDS011;2338;49.602;8.722;2023-08-24T09:06:35;19.53;;;4.67;;
4650;SDS011;2338;49.602;8.722;2023-08-24T09:09:21;7.40;;;4.03;;
4650;SDS011;2338;49.602;8.722;2023-08-24T09:12:09;5.23;;;3.57;;
4650;SDS011;2338;49.602;8.722;2023-08-24T09:14:55;7.60;;;4.23;;
4650;SDS011;2338;49.602;8.722;2023-08-24T09:17:44;6.93;;;4.33;;
4650;SDS011;2338;49.602;8.722;2023-08-24T09:20:29;4.63;;;3.87;;
4650;SDS011;2338;49.602;8.722;2023-08-24T09:23:17;6.00;;;3.70;;
4650;SDS011;2338;49.602;8.722;2023-08-24T09:26:03;5.07;;;3.00;;
4650;SDS011;2338;49.602;8.722;2023-08-24T09:28:51;4.47;;;2.80;;
4650;SDS011;2338;49.602;8.722;2023-08-24T09:31:37;4.27;;;3.00;;
4650;SDS011;2338;49.602;8.722;2023-08-24T09:34:24;11.30;;;3.23;;
4650;SDS011;2338;49.602;8.722;2023-08-24T09:37:14;4.50;;;2.97;;
4650;SDS011;2338;49.602;8.722;2023-08-24T09:40:00;5.57;;;3.60;;
4650;SDS011;2338;49.602;8.722;2023-08-24T09:42:51;5.03;;;2.80;;
4650;SDS011;2338;49.602;8.722;2023-08-24T09:45:38;4.10;;;2.90;;
4650;SDS011;2338;49.602;8.722;2023-08-24T09:48:32;7.10;;;3.33;;
4650;SDS011;2338;49.602;8.722;2023-08-24T09:51:17;15.50;;;3.63;;
4650;SDS011;2338;49.602;8.722;2023-08-24T09:54:04;10.03;;;3.27;;
4650;SDS011;2338;49.602;8.722;2023-08-24T09:56:52;4.37;;;3.33;;
4650;SDS011;2338;49.602;8.722;2023-08-24T09:59:39;4.60;;;3.27;;
4650;SDS011;2338;49.602;8.722;2023-08-24T10:02:29;5.07;;;3.40;;
4650;SDS011;2338;49.602;8.722;2023-08-24T10:05:21;5.93;;;3.07;;
4650;SDS011;2338;49.602;8.722;2023-08-24T10:08:09;9.77;;;3.33;;
4650;SDS011;2338;49.602;8.722;2023-08-24T10:10:56;7.30;;;3.20;;
4650;SDS011;2338;49.602;8.722;2023-08-24T10:13:43;9.70;;;3.53;;
4650;SDS011;2338;49.602;8.722;2023-08-24T10:16:35;4.43;;;2.80;;
4650;SDS011;2338;49.602;8.722;2023-08-24T10:19:22;6.30;;;3.03;;
4650;SDS011;2338;49.602;8.722;2023-08-24T10:22:09;10.43;;;3.60;;
4650;SDS011;2338;49.602;8.722;2023-08-24T10:24:55;8.43;;;3.63;;
4650;SDS011;2338;49.602;8.722;2023-08-24T10:27:41;8.37;;;3.60;;
4650;SDS011;2338;49.602;8.722;2023-08-24T10:30:29;8.20;;;3.57;;
4650;SDS011;2338;49.602;8.722;2023-08-24T10:33:15;4.13;;;3.20;;
4650;SDS011;2338;49.602;8.722;2023-08-24T10:36:05;4.03;;;3.03;;
4650;SDS011;2338;49.602;8.722;2023-08-24T10:38:51;12.40;;;3.50;;
4650;SDS011;2338;49.602;8.722;2023-08-24T10:41:48;6.03;;;3.53;;
4650;SDS011;2338;49.602;8.722;2023-08-24T10:44:35;4.90;;;3.43;;
4650;SDS011;2338;49.602;8.722;2023-08-24T10:47:22;8.00;;;3.30;;
4650;SDS011;2338;49.602;8.722;2023-08-24T10:50:10;6.40;;;3.30;;
4650;SDS011;2338;49.602;8.722;2023-08-24T10:52:57;4.63;;;3.10;;
4650;SDS011;2338;49.602;8.722;2023-08-24T10:55:43;4.13;;;2.93;;
4650;SDS011;2338;49.602;8.722;2023-08-24T10:58:33;4.30;;;3.07;;
4650;SDS011;2338;49.602;8.722;2023-08-24T11:01:19;3.67;;;2.87;;
4650;SDS011;2338;49.602;8.722;2023-08-24T11:04:07;10.33;;;3.13;;
4650;SDS011;2338;49.602;8.722;2023-08-24T11:06:53;16.60;;;3.53;;
4650;SDS011;2338;49.602;8.722;2023-08-24T11:09:47;10.40;;;3.80;;
4650;SDS011;2338;49.602;8.722;2023-08-24T11:15:52;4.70;;;3.07;;
4650;SDS011;2338;49.602;8.722;2023-08-24T11:18:41;7.60;;;3.53;;
4650;SDS011;2338;49.602;8.722;2023-08-24T11:21:27;9.43;;;3.40;;
4650;SDS011;2338;49.602;8.722;2023-08-24T11:24:13;5.77;;;2.90;;
4650;SDS011;2338;49.602;8.722;2023-08-24T11:27:01;7.27;;;3.77;;
4650;SDS011;2338;49.602;8.722;2023-08-24T11:29:57;5.37;;;3.13;;
4650;SDS011;2338;49.602;8.722;2023-08-24T11:32:44;4.73;;;3.30;;
4650;SDS011;2338;49.602;8.722;2023-08-24T11:35:36;7.50;;;3.33;;
4650;SDS011;2338;49.602;8.722;2023-08-24T11:38:23;12.63;;;3.80;;
4650;SDS011;2338;49.602;8.722;2023-08-24T11:41:10;5.63;;;3.83;;
4650;SDS011;2338;49.602;8.722;2023-08-24T11:44:01;5.20;;;3.07;;
4650;SDS011;2338;49.602;8.722;2023-08-24T11:46:46;5.70;;;3.97;;
4650;SDS011;2338;49.602;8.722;2023-08-24T11:49:32;7.00;;;3.23;;
4650;SDS011;2338;49.602;8.722;2023-08-24T11:52:18;8.13;;;3.90;;
4650;SDS011;2338;49.602;8.722;2023-08-24T11:55:04;5.43;;;3.60;;
4650;SDS011;2338;49.602;8.722;2023-08-24T11:57:52;5.47;;;3.60;;
4650;SDS011;2338;49.602;8.722;2023-08-24T12:00:41;6.23;;;3.97;;
4650;SDS011;2338;49.602;8.722;2023-08-24T12:03:27;6.23;;;3.23;;
4650;SDS011;2338;49.602;8.722;2023-08-24T12:06:14;5.20;;;3.40;;
4650;SDS011;2338;49.602;8.722;2023-08-24T12:09:01;4.80;;;3.20;;
4650;SDS011;2338;49.602;8.722;2023-08-24T12:11:55;8.27;;;3.57;;
4650;SDS011;2338;49.602;8.722;2023-08-24T12:14:41;5.53;;;3.50;;
4650;SDS011;2338;49.602;8.722;2023-08-24T12:17:29;5.53;;;4.00;;
4650;SDS011;2338;49.602;8.722;2023-08-24T12:20:18;7.63;;;3.60;;
4650;SDS011;2338;49.602;8.722;2023-08-24T12:23:05;5.60;;;3.53;;
4650;SDS011;2338;49.602;8.722;2023-08-24T12:25:53;10.77;;;3.80;;
4650;SDS011;2338;49.602;8.722;2023-08-24T12:28:39;5.77;;;3.60;;
4650;SDS011;2338;49.602;8.722;2023-08-24T12:31:25;10.30;;;3.90;;
4650;SDS011;2338;49.602;8.722;2023-08-24T12:34:14;6.27;;;4.10;;
4650;SDS011;2338;49.602;8.722;2023-08-24T12:37:00;8.53;;;3.83;;
4650;SDS011;2338;49.602;8.722;2023-08-24T12:39:46;5.63;;;4.00;;
4650;SDS011;2338;49.602;8.722;2023-08-24T12:42:32;4.80;;;3.40;;
4650;SDS011;2338;49.602;8.722;2023-08-24T12:45:18;5.70;;;3.97;;
4650;SDS011;2338;49.602;8.722;2023-08-24T12:48:04;7.00;;;3.40;;
4650;SDS011;2338;49.602;8.722;2023-08-24T12:50:52;5.40;;;4.00;;
4650;SDS011;2338;49.602;8.722;2023-08-24T12:53:37;5.40;;;4.00;;
4650;SDS011;2338;49.602;8.722;2023-08-24T12:56:23;9.60;;;4.10;;
4650;SDS011;2338;49.602;8.722;2023-08-24T12:59:08;5.67;;;3.60;;
4650;SDS011;2338;49.602;8.722;2023-08-24T13:01:54;6.07;;;4.50;;
4650;SDS011;2338;49.602;8.722;2023-08-24T13:04:40;5.77;;;3.73;;
4650;SDS011;2338;49.602;8.722;2023-08-24T13:07:26;6.07;;;4.53;;
4650;SDS011;2338;49.602;8.722;2023-08-24T13:10:12;7.00;;;4.13;;
4650;SDS011;2338;49.602;8.722;2023-08-24T13:12:58;7.40;;;4.10;;
4650;SDS011;2338;49.602;8.722;2023-08-24T13:15:43;5.67;;;3.60;;
4650;SDS011;2338;49.602;8.722;2023-08-24T13:18:29;7.40;;;4.07;;
4650;SDS011;2338;49.602;8.722;2023-08-24T13:21:15;6.00;;;3.93;;
4650;SDS011;2338;49.602;8.722;2023-08-24T13:24:02;12.63;;;4.43;;
4650;SDS011;2338;49.602;8.722;2023-08-24T13:26:48;9.87;;;4.87;;
4650;SDS011;2338;49.602;8.722;2023-08-24T13:29:33;7.00;;;4.63;;
4650;SDS011;2338;49.602;8.722;2023-08-24T13:32:19;7.60;;;4.43;;
4650;SDS011;2338;49.602;8.722;2023-08-24T13:35:05;6.80;;;4.70;;
4650;SDS011;2338;49.602;8.722;2023-08-24T13:37:52;10.10;;;4.67;;
4650;SDS011;2338;49.602;8.722;2023-08-24T13:40:39;7.40;;;4.30;;
4650;SDS011;2338;49.602;8.722;2023-08-24T13:43:25;5.80;;;4.40;;
4650;SDS011;2338;49.602;8.722;2023-08-24T13:46:11;6.10;;;4.90;;
4650;SDS011;2338;49.602;8.722;2023-08-24T13:48:56;8.80;;;4.30;;
4650;SDS011;2338;49.602;8.722;2023-08-24T13:51:42;16.50;;;4.73;;
4650;SDS011;2338;49.602;8.722;2023-08-24T13:54:27;8.50;;;5.13;;
4650;SDS011;2338;49.602;8.722;2023-08-24T13:57:15;6.77;;;4.63;;
4650;SDS011;2338;49.602;8.722;2023-08-24T14:00:01;11.10;;;4.80;;
4650;SDS011;2338;49.602;8.722;2023-08-24T14:02:48;6.10;;;4.10;;
4650;SDS011;2338;49.602;8.722;2023-08-24T14:05:38;8.67;;;5.37;;
4650;SDS011;2338;49.602;8.722;2023-08-24T14:08:24;6.97;;;5.10;;
4650;SDS011;2338;49.602;8.722;2023-08-24T14:11:09;7.20;;;5.23;;
4650;SDS011;2338;49.602;8.722;2023-08-24T14:13:56;5.07;;;4.23;;
4650;SDS011;2338;49.602;8.722;2023-08-24T14:16:42;7.13;;;5.13;;
4650;SDS011;2338;49.602;8.722;2023-08-24T14:19:28;7.57;;;5.13;;
4650;SDS011;2338;49.602;8.722;2023-08-24T14:22:14;6.17;;;4.40;;
4650;SDS011;2338;49.602;8.722;2023-08-24T14:24:59;8.23;;;5.03;;
4650;SDS011;2338;49.602;8.722;2023-08-24T14:27:45;6.10;;;5.10;;
4650;SDS011;2338;49.602;8.722;2023-08-24T14:30:32;8.00;;;5.90;;
4650;SDS011;2338;49.602;8.722;2023-08-24T14:33:17;6.30;;;5.30;;
4650;SDS011;2338;49.602;8.722;2023-08-24T14:36:04;9.13;;;5.50;;
4650;SDS011;2338;49.602;8.722;2023-08-24T14:38:51;6.43;;;5.50;;
4650;SDS011;2338;49.602;8.722;2023-08-24T14:41:36;13.87;;;4.73;;
4650;SDS011;2338;49.602;8.722;2023-08-24T14:44:22;6.63;;;5.13;;
4650;SDS011;2338;49.602;8.722;2023-08-24T14:47:10;10.53;;;4.87;;
4650;SDS011;2338;49.602;8.722;2023-08-24T14:49:55;8.03;;;4.20;;
4650;SDS011;2338;49.602;8.722;2023-08-24T14:52:41;11.03;;;4.70;;
4650;SDS011;2338;49.602;8.722;2023-08-24T14:55:27;11.03;;;4.57;;
4650;SDS011;2338;49.602;8.722;2023-08-24T14:58:13;25.23;;;5.60;;
4650;SDS011;2338;49.602;8.722;2023-08-24T15:00:58;12.13;;;4.80;;
4650;SDS011;2338;49.602;8.722;2023-08-24T15:03:45;8.00;;;4.87;;
4650;SDS011;2338;49.602;8.722;2023-08-24T15:06:31;14.27;;;5.80;;
4650;SDS011;2338;49.602;8.722;2023-08-24T15:09:17;9.57;;;6.23;;
4650;SDS011;2338;49.602;8.722;2023-08-24T15:12:03;9.13;;;5.40;;
4650;SDS011;2338;49.602;8.722;2023-08-24T15:14:58;11.00;;;6.30;;
4650;SDS011;2338;49.602;8.722;2023-08-24T15:17:45;11.70;;;5.53;;
4650;SDS011;2338;49.602;8.722;2023-08-24T15:20:32;14.00;;;6.77;;
4650;SDS011;2338;49.602;8.722;2023-08-24T15:23:25;12.33;;;7.20;;
4650;SDS011;2338;49.602;8.722;2023-08-24T15:26:11;8.73;;;6.40;;
4650;SDS011;2338;49.602;8.722;2023-08-24T15:29:07;7.03;;;5.97;;
4650;SDS011;2338;49.602;8.722;2023-08-24T15:31:53;8.33;;;7.23;;
4650;SDS011;2338;49.602;8.722;2023-08-24T15:34:39;8.00;;;6.23;;
4650;SDS011;2338;49.602;8.722;2023-08-24T15:37:26;8.73;;;6.20;;
4650;SDS011;2338;49.602;8.722;2023-08-24T15:40:13;6.90;;;6.23;;
4650;SDS011;2338;49.602;8.722;2023-08-24T15:42:58;11.70;;;6.50;;
4650;SDS011;2338;49.602;8.722;2023-08-24T15:45:44;10.53;;;7.63;;
4650;SDS011;2338;49.602;8.722;2023-08-24T15:48:30;11.87;;;6.57;;
4650;SDS011;2338;49.602;8.722;2023-08-24T15:51:15;9.23;;;7.00;;
4650;SDS011;2338;49.602;8.722;2023-08-24T15:54:03;12.23;;;7.03;;
4650;SDS011;2338;49.602;8.722;2023-08-24T15:56:48;23.63;;;6.87;;
4650;SDS011;2338;49.602;8.722;2023-08-24T15:59:34;8.07;;;6.00;;
4650;SDS011;2338;49.602;8.722;2023-08-24T16:02:20;8.07;;;7.17;;
4650;SDS011;2338;49.602;8.722;2023-08-24T16:05:06;10.53;;;6.30;;
4650;SDS011;2338;49.602;8.722;2023-08-24T16:07:52;9.80;;;7.40;;
4650;SDS011;2338;49.602;8.722;2023-08-24T16:10:40;8.60;;;7.33;;
4650;SDS011;2338;49.602;8.722;2023-08-24T16:13:26;7.40;;;6.40;;
4650;SDS011;2338;49.602;8.722;2023-08-24T16:16:11;8.00;;;6.90;;
4650;SDS011;2338;49.602;8.722;2023-08-24T16:18:57;10.20;;;7.10;;
4650;SDS011;2338;49.602;8.722;2023-08-24T16:21:42;13.83;;;7.23;;
4650;SDS011;2338;49.602;8.722;2023-08-24T16:24:28;7.90;;;7.10;;
4650;SDS011;2338;49.602;8.722;2023-08-24T16:27:15;8.80;;;7.87;;
4650;SDS011;2338;49.602;8.722;2023-08-24T16:30:01;16.30;;;7.57;;
4650;SDS011;2338;49.602;8.722;2023-08-24T16:32:47;8.57;;;7.53;;
4650;SDS011;2338;49.602;8.722;2023-08-24T16:35:32;9.23;;;7.30;;
4650;SDS011;2338;49.602;8.722;2023-08-24T16:38:18;10.80;;;6.70;;
4650;SDS011;2338;49.602;8.722;2023-08-24T16:41:04;7.27;;;6.57;;
4650;SDS011;2338;49.602;8.722;2023-08-24T16:43:51;8.00;;;6.80;;
4650;SDS011;2338;49.602;8.722;2023-08-24T16:46:37;8.10;;;6.90;;
4650;SDS011;2338;49.602;8.722;2023-08-24T16:49:23;7.80;;;6.03;;
4650;SDS011;2338;49.602;8.722;2023-08-24T16:52:08;8.17;;;6.77;;
4650;SDS011;2338;49.602;8.722;2023-08-24T16:54:54;10.57;;;6.87;;
4650;SDS011;2338;49.602;8.722;2023-08-24T16:57:39;8.10;;;6.37;;
4650;SDS011;2338;49.602;8.722;2023-08-24T17:00:29;14.30;;;6.70;;
4650;SDS011;2338;49.602;8.722;2023-08-24T17:03:15;8.23;;;6.33;;
4650;SDS011;2338;49.602;8.722;2023-08-24T17:06:01;9.73;;;6.00;;
4650;SDS011;2338;49.602;8.722;2023-08-24T17:08:47;8.60;;;6.47;;
4650;SDS011;2338;49.602;8.722;2023-08-24T17:11:32;14.40;;;8.20;;
4650;SDS011;2338;49.602;8.722;2023-08-24T17:14:18;12.53;;;6.50;;
4650;SDS011;2338;49.602;8.722;2023-08-24T17:17:05;11.27;;;7.80;;